createdAt,value
2023-05-05T00:01:55.560Z,101180.13
2023-05-05T00:04:24.347Z,101171.41
2023-05-05T00:06:51.393Z,101178.31
2023-05-05T00:09:18.473Z,101185.59
2023-05-05T00:11:46.169Z,101186.03
2023-05-05T00:14:13.364Z,101175.50
2023-05-05T00:16:40.642Z,101173.94
2023-05-05T00:19:07.583Z,101178.47
2023-05-05T00:21:36.240Z,101152.56
2023-05-05T00:24:03.579Z,101168.88
2023-05-05T00:26:31.043Z,101170.56
2023-05-05T00:28:58.046Z,101179.38
2023-05-05T00:31:25.386Z,101182.91
2023-05-05T00:33:52.601Z,101139.94
2023-05-05T00:36:19.788Z,101171.25
2023-05-05T00:38:48.089Z,101171.56
2023-05-05T00:41:15.412Z,101177.88
2023-05-05T00:43:42.442Z,101174.88
2023-05-05T00:46:27.912Z,101157.47
2023-05-05T00:48:55.274Z,101181.44
2023-05-05T00:51:22.973Z,101170.78
2023-05-05T00:53:51.533Z,101163.91
2023-05-05T00:56:20.935Z,101169.59
2023-05-05T00:58:49.026Z,101136.31
2023-05-05T01:01:17.477Z,101167.06
2023-05-05T01:03:44.937Z,101167.81
2023-05-05T01:06:28.070Z,101163.56
2023-05-05T01:09:05.169Z,101166.50
2023-05-05T01:11:42.199Z,101164.09
2023-05-05T01:14:14.310Z,101163.81
2023-05-05T01:16:53.540Z,101167.41
2023-05-05T01:19:43.371Z,101157.13
2023-05-05T01:22:15.050Z,101160.75
2023-05-05T01:24:59.780Z,101140.00
2023-05-05T01:27:49.988Z,101161.38
2023-05-05T01:30:41.698Z,101158.31
2023-05-05T01:33:14.453Z,101159.28
2023-05-05T01:35:45.966Z,101143.81
2023-05-05T01:38:17.108Z,101161.38
2023-05-05T01:40:48.256Z,101141.88
2023-05-05T01:43:19.559Z,101155.50
2023-05-05T01:45:48.094Z,101159.59
2023-05-05T01:48:19.665Z,101138.06
2023-05-05T01:50:48.359Z,101142.84
2023-05-05T01:53:17.602Z,101157.91
2023-05-05T01:55:46.048Z,101158.88
2023-05-05T01:58:14.959Z,101156.34
2023-05-05T02:00:42.878Z,101152.66
2023-05-05T02:03:13.509Z,101150.06
2023-05-05T02:05:43.642Z,101123.03
2023-05-05T02:08:12.687Z,101134.84
2023-05-05T02:10:43.493Z,101152.69
2023-05-05T02:13:13.000Z,101146.06
2023-05-05T02:15:42.402Z,101148.84
2023-05-05T02:18:10.054Z,101143.81
2023-05-05T02:20:38.491Z,101145.09
2023-05-05T02:23:08.506Z,101150.28
2023-05-05T02:25:40.106Z,101154.75
2023-05-05T02:28:13.230Z,101157.56
2023-05-05T02:30:41.759Z,101147.34
2023-05-05T02:33:11.787Z,101146.25
2023-05-05T02:35:40.944Z,101122.63
2023-05-05T02:38:13.322Z,101144.44
2023-05-05T02:40:44.331Z,101133.91
2023-05-05T02:43:15.906Z,101122.81
2023-05-05T02:45:43.023Z,101143.91
2023-05-05T02:48:13.056Z,101137.03
2023-05-05T02:50:40.298Z,101133.66
2023-05-05T02:53:09.497Z,101132.63
2023-05-05T02:55:42.996Z,101134.44
2023-05-05T02:58:20.784Z,101128.72
2023-05-05T03:00:55.708Z,101138.53
2023-05-05T03:03:29.588Z,101136.69
2023-05-05T03:06:03.983Z,101142.88
2023-05-05T03:08:37.119Z,101133.47
2023-05-05T03:11:06.525Z,101115.06
2023-05-05T03:13:36.721Z,101135.44
2023-05-05T03:16:07.682Z,101130.22
2023-05-05T03:18:37.795Z,101141.69
2023-05-05T03:21:08.666Z,101144.16
2023-05-05T03:23:37.898Z,101124.88
2023-05-05T03:26:04.730Z,101139.94
2023-05-05T03:28:32.175Z,101112.75
2023-05-05T03:30:59.155Z,101155.56
2023-05-05T03:33:26.610Z,101155.50
2023-05-05T03:35:53.548Z,101145.63
2023-05-05T03:38:21.000Z,101156.47
2023-05-05T03:40:49.412Z,101158.41
2023-05-05T03:43:16.958Z,101169.06
2023-05-05T03:45:43.850Z,101172.91
2023-05-05T03:48:13.802Z,101049.91
2023-05-05T03:50:40.654Z,101181.94
2023-05-05T03:53:07.815Z,101161.66
2023-05-05T03:55:35.247Z,101166.16
2023-05-05T03:58:04.004Z,101181.38
2023-05-05T04:00:30.974Z,101173.16
2023-05-05T04:02:58.279Z,101160.31
2023-05-05T04:05:26.293Z,101184.03
2023-05-05T04:07:53.558Z,101186.41
2023-05-05T04:10:21.459Z,101130.19
2023-05-05T04:12:48.937Z,101152.63
2023-05-05T04:15:17.343Z,101193.28
2023-05-05T04:17:44.685Z,101189.50
2023-05-05T04:20:12.190Z,101189.13
2023-05-05T04:22:39.636Z,101181.47
2023-05-05T04:25:07.367Z,101189.81
2023-05-05T04:27:34.806Z,101178.13
2023-05-05T04:30:01.875Z,101187.50
2023-05-05T04:32:30.528Z,101186.63
2023-05-05T04:34:57.509Z,101191.25
2023-05-05T04:37:28.445Z,101189.50
2023-05-05T04:39:55.473Z,101187.47
2023-05-05T04:42:22.961Z,101200.25
2023-05-05T04:44:49.880Z,101203.25
2023-05-05T04:47:17.119Z,101205.44
2023-05-05T04:49:45.548Z,101195.69
2023-05-05T04:52:13.885Z,101187.84
2023-05-05T04:54:40.966Z,101189.38
2023-05-05T04:57:08.156Z,101197.66
2023-05-05T04:59:35.298Z,101201.66
2023-05-05T05:02:02.999Z,101192.66
2023-05-05T05:04:30.130Z,101195.50
2023-05-05T05:06:59.368Z,101188.06
2023-05-05T05:09:26.428Z,101179.03
2023-05-05T05:11:53.619Z,101186.00
2023-05-05T05:14:20.723Z,101177.88
2023-05-05T05:16:52.155Z,101185.38
2023-05-05T05:19:20.134Z,101199.41
2023-05-05T05:21:47.512Z,101193.38
2023-05-05T05:24:16.342Z,101193.13
2023-05-05T05:26:43.547Z,101185.59
2023-05-05T05:29:10.564Z,101161.81
2023-05-05T05:31:37.850Z,101161.63
2023-05-05T05:34:04.839Z,101183.75
2023-05-05T05:36:32.134Z,101196.56
2023-05-05T05:38:59.128Z,101197.47
2023-05-05T05:41:27.884Z,101199.69
2023-05-05T05:43:54.984Z,101197.69
2023-05-05T05:46:22.284Z,101195.75
2023-05-05T05:48:49.318Z,101203.84
2023-05-05T05:51:16.554Z,101198.41
2023-05-05T05:53:43.501Z,101205.47
2023-05-05T05:56:11.407Z,101210.44
2023-05-05T05:58:40.615Z,101198.53
2023-05-05T06:01:07.853Z,101205.28
2023-05-05T06:03:36.188Z,101212.13
2023-05-05T06:06:03.770Z,101213.13
2023-05-05T06:08:30.980Z,101210.97
2023-05-05T06:10:59.206Z,101206.63
2023-05-05T06:13:26.448Z,101195.13
2023-05-05T06:15:55.251Z,101217.25
2023-05-05T06:18:22.324Z,101214.00
2023-05-05T06:20:51.005Z,101205.53
2023-05-05T06:23:18.341Z,101206.31
2023-05-05T06:25:46.909Z,101170.22
2023-05-05T06:28:14.096Z,101161.66
2023-05-05T06:30:41.593Z,101118.28
2023-05-05T06:33:10.107Z,101209.25
2023-05-05T06:35:37.406Z,101200.94
2023-05-05T06:38:04.536Z,101188.19
2023-05-05T06:40:31.925Z,101204.22
2023-05-05T06:42:59.283Z,101205.34
2023-05-05T06:45:26.894Z,101204.28
2023-05-05T06:47:53.882Z,101208.41
2023-05-05T06:50:22.516Z,101182.25
2023-05-05T06:52:49.711Z,101210.09
2023-05-05T06:55:17.038Z,101181.81
2023-05-05T06:57:43.997Z,101207.38
2023-05-05T07:00:13.927Z,101203.50
2023-05-05T07:02:41.724Z,101194.28
2023-05-05T07:05:09.514Z,101168.97
2023-05-05T07:07:38.861Z,101172.88
2023-05-05T07:10:07.689Z,101194.38
2023-05-05T07:12:34.630Z,101201.38
2023-05-05T07:15:12.195Z,101202.78
2023-05-05T07:17:46.437Z,101189.72
2023-05-05T07:20:13.929Z,101199.00
2023-05-05T07:22:42.397Z,101196.03
2023-05-05T07:25:09.596Z,101195.34
2023-05-05T07:27:37.427Z,101193.44
2023-05-05T07:30:10.166Z,101200.53
2023-05-05T07:32:40.027Z,101188.31
2023-05-05T07:35:07.896Z,101194.63
2023-05-05T07:37:34.820Z,101197.84
2023-05-05T07:40:04.252Z,101175.50
2023-05-05T07:42:31.252Z,101191.34
2023-05-05T07:44:58.539Z,101191.25
2023-05-05T07:47:25.916Z,101186.38
2023-05-05T07:49:53.985Z,101188.56
2023-05-05T07:52:30.065Z,101183.63
2023-05-05T07:55:06.804Z,101179.09
2023-05-05T07:57:33.866Z,101160.41
2023-05-05T08:00:01.189Z,101170.81
2023-05-05T08:02:28.553Z,101179.56
2023-05-05T08:04:55.907Z,101175.09
2023-05-05T08:07:22.992Z,101156.78
2023-05-05T08:09:50.263Z,101174.16
2023-05-05T08:12:19.475Z,101167.25
2023-05-05T08:17:13.516Z,101167.94
2023-05-05T08:19:40.787Z,101162.88
2023-05-05T08:22:08.125Z,101168.53
2023-05-05T08:24:35.410Z,101179.63
2023-05-05T08:27:02.707Z,101161.91
2023-05-05T08:29:31.406Z,101164.06
2023-05-05T08:31:58.468Z,101173.25
2023-05-05T08:34:26.004Z,101168.56
2023-05-05T08:36:53.023Z,101165.38
2023-05-05T08:39:20.331Z,101171.22
2023-05-05T08:41:47.349Z,101162.66
2023-05-05T08:44:15.007Z,101147.47
2023-05-05T08:46:43.658Z,101162.81
2023-05-05T08:49:16.163Z,101158.31
2023-05-05T08:51:45.433Z,101145.81
2023-05-05T08:54:17.817Z,101155.44
2023-05-05T08:56:46.980Z,101154.38
2023-05-05T08:59:15.988Z,101145.63
2023-05-05T09:01:45.053Z,101154.03
2023-05-05T09:04:12.591Z,101153.78
2023-05-05T09:06:40.486Z,101148.34
2023-05-05T09:09:09.221Z,101148.75
2023-05-05T09:11:37.676Z,101132.47
2023-05-05T09:14:04.980Z,101123.97
2023-05-05T09:16:32.268Z,101135.91
2023-05-05T09:19:04.741Z,101126.06
2023-05-05T09:21:32.395Z,101113.53
2023-05-05T09:24:09.077Z,101122.28
2023-05-05T09:26:38.988Z,101125.25
2023-05-05T09:29:06.742Z,101066.00
2023-05-05T09:31:35.269Z,101117.56
2023-05-05T09:34:14.115Z,101119.41
2023-05-05T09:36:47.418Z,101086.22
2023-05-05T09:39:16.661Z,101087.06
2023-05-05T09:41:44.512Z,101047.84
2023-05-05T09:44:12.631Z,101116.50
2023-05-05T09:46:49.977Z,101115.25
2023-05-05T09:49:25.267Z,101090.59
2023-05-05T09:51:53.425Z,101108.78
2023-05-05T09:54:24.951Z,101117.31
2023-05-05T09:56:52.386Z,101101.06
2023-05-05T09:59:20.584Z,101107.53
2023-05-05T10:01:48.802Z,101114.63
2023-05-05T10:04:25.336Z,101115.00
2023-05-05T10:06:52.308Z,101103.72
2023-05-05T10:09:21.007Z,101093.53
2023-05-05T10:11:48.671Z,101087.28
2023-05-05T10:14:20.592Z,101092.72
2023-05-05T10:16:50.641Z,101095.81
2023-05-05T10:19:19.492Z,101101.78
2023-05-05T10:21:50.625Z,101100.50
2023-05-05T10:24:26.031Z,101099.25
2023-05-05T10:26:54.396Z,101074.00
2023-05-05T10:29:28.356Z,101086.00
2023-05-05T10:32:12.036Z,101079.47
2023-05-05T10:34:53.487Z,101060.88
2023-05-05T10:37:22.903Z,101075.28
2023-05-05T10:39:52.685Z,101082.53
2023-05-05T10:42:20.152Z,101077.16
2023-05-05T10:44:49.153Z,101053.13
2023-05-05T10:47:16.842Z,101056.38
2023-05-05T10:49:49.409Z,101064.94
2023-05-05T10:52:26.143Z,101060.09
2023-05-05T10:55:01.482Z,101057.84
2023-05-05T10:57:29.759Z,101062.69
2023-05-05T10:59:57.066Z,101055.91
2023-05-05T11:02:25.874Z,101041.44
2023-05-05T11:05:07.264Z,101050.88
2023-05-05T11:07:35.953Z,101043.69
2023-05-05T11:10:05.201Z,101041.06
2023-05-05T11:12:34.636Z,101022.09
2023-05-05T11:15:37.597Z,101038.25
2023-05-05T11:18:07.783Z,101042.13
2023-05-05T11:21:03.683Z,101038.66
2023-05-05T11:23:32.172Z,101007.03
2023-05-05T11:26:00.048Z,101034.44
2023-05-05T11:28:30.836Z,101025.97
2023-05-05T11:31:18.010Z,101024.56
2023-05-05T11:33:45.301Z,101015.41
2023-05-05T11:36:13.720Z,101014.84
2023-05-05T11:39:00.478Z,101015.78
2023-05-05T11:41:41.769Z,101004.34
2023-05-05T11:44:10.308Z,100996.06
2023-05-05T11:46:37.872Z,101011.59
2023-05-05T11:49:04.923Z,101001.91
2023-05-05T11:51:32.409Z,101007.25
2023-05-05T11:54:01.046Z,100997.06
2023-05-05T11:56:29.267Z,100994.53
2023-05-05T11:59:08.664Z,100987.44
2023-05-05T12:01:39.244Z,100987.94
2023-05-05T12:04:07.011Z,100988.19
2023-05-05T12:06:34.415Z,100983.53
2023-05-05T12:09:04.029Z,100976.97
2023-05-05T12:11:31.572Z,100980.47
2023-05-05T12:14:09.278Z,100960.66
2023-05-05T12:16:36.821Z,100972.34
2023-05-05T12:19:05.872Z,100972.09
2023-05-05T12:21:33.509Z,100953.63
2023-05-05T12:24:02.131Z,100961.84
2023-05-05T12:26:30.928Z,100962.72
2023-05-05T12:28:58.113Z,100959.28
2023-05-05T12:31:35.659Z,100945.66
2023-05-05T12:34:03.598Z,100957.94
2023-05-05T12:36:32.879Z,100944.25
2023-05-05T12:38:59.863Z,100943.59
2023-05-05T12:41:29.989Z,100938.56
2023-05-05T12:43:58.276Z,100934.09
2023-05-05T12:46:26.598Z,100924.03
2023-05-05T12:49:01.613Z,100933.19
2023-05-05T12:51:28.932Z,100930.91
2023-05-05T12:54:03.493Z,100922.31
2023-05-05T12:56:36.762Z,100918.91
2023-05-05T12:59:05.408Z,100919.53
2023-05-05T13:01:33.417Z,100916.97
2023-05-05T13:04:10.923Z,100922.13
2023-05-05T13:06:38.837Z,100916.38
2023-05-05T13:09:07.090Z,100915.03
2023-05-05T13:11:39.404Z,100906.91
2023-05-05T13:14:07.633Z,100900.41
2023-05-05T13:16:34.797Z,100895.53
2023-05-05T13:19:01.799Z,100896.81
2023-05-05T13:21:29.047Z,100889.72
2023-05-05T13:24:08.126Z,100885.78
2023-05-05T13:26:41.168Z,100845.22
2023-05-05T13:29:08.144Z,100877.13
2023-05-05T13:31:35.649Z,100868.03
2023-05-05T13:34:02.876Z,100881.72
2023-05-05T13:36:30.126Z,100860.06
2023-05-05T13:38:57.111Z,100865.75
2023-05-05T13:41:24.575Z,100849.09
2023-05-05T13:43:53.227Z,100869.63
2023-05-05T13:46:20.554Z,100843.69
2023-05-05T13:48:48.024Z,100851.47
2023-05-05T13:51:16.378Z,100854.22
2023-05-05T13:53:46.558Z,100856.41
2023-05-05T13:56:14.452Z,100845.00
2023-05-05T13:58:42.482Z,100857.31
2023-05-05T14:01:11.777Z,100853.97
2023-05-05T14:03:39.759Z,100851.47
2023-05-05T14:06:09.106Z,100820.41
2023-05-05T14:08:36.377Z,100850.38
2023-05-05T14:11:03.758Z,100834.88
2023-05-05T14:13:31.594Z,100848.38
2023-05-05T14:15:58.760Z,100846.38
2023-05-05T14:18:28.106Z,100834.69
2023-05-05T14:20:55.557Z,100851.81
2023-05-05T14:23:22.610Z,100833.03
2023-05-05T14:25:49.868Z,100842.94
2023-05-05T14:28:17.149Z,100801.66
2023-05-05T14:30:44.494Z,100842.34
2023-05-05T14:33:11.557Z,100844.34
2023-05-05T14:35:40.386Z,100780.66
2023-05-05T14:38:07.178Z,100833.66
2023-05-05T14:40:34.693Z,100816.22
2023-05-05T14:43:03.377Z,100824.44
2023-05-05T14:45:31.828Z,100804.53
2023-05-05T14:47:58.845Z,100831.78
2023-05-05T14:50:26.334Z,100829.88
2023-05-05T14:52:54.619Z,100838.09
2023-05-05T14:55:21.958Z,100794.50
2023-05-05T14:57:48.867Z,100793.78
2023-05-05T15:00:16.964Z,100800.25
2023-05-05T15:02:44.230Z,100806.66
2023-05-05T15:05:11.796Z,100813.63
2023-05-05T15:07:40.115Z,100802.00
2023-05-05T15:10:09.468Z,100829.25
2023-05-05T15:12:36.541Z,100823.16
2023-05-05T15:15:04.417Z,100801.53
2023-05-05T15:17:31.866Z,100831.53
2023-05-05T15:19:59.370Z,100831.38
2023-05-05T15:22:26.405Z,100832.13
2023-05-05T15:24:53.568Z,100828.19
2023-05-05T15:27:21.912Z,100828.03
2023-05-05T15:29:49.153Z,100821.53
2023-05-05T15:32:16.456Z,100816.28
2023-05-05T15:34:45.464Z,100822.94
2023-05-05T15:37:12.407Z,100817.81
2023-05-05T15:39:39.705Z,100812.84
2023-05-05T15:42:06.857Z,100792.59
2023-05-05T15:44:35.670Z,100818.63
2023-05-05T15:47:02.576Z,100812.25
2023-05-05T15:49:29.972Z,100803.69
2023-05-05T15:51:57.074Z,100784.69
2023-05-05T15:54:24.278Z,100819.72
2023-05-05T15:56:53.747Z,100793.72
2023-05-05T15:59:21.027Z,100812.31
2023-05-05T16:01:49.473Z,100802.50
2023-05-05T16:04:16.864Z,100798.00
2023-05-05T16:06:43.894Z,100800.91
2023-05-05T16:09:11.383Z,100800.09
2023-05-05T16:11:39.570Z,100791.72
2023-05-05T16:14:06.844Z,100788.81
2023-05-05T16:16:34.012Z,100795.88
2023-05-05T16:19:02.671Z,100777.81
2023-05-05T16:21:29.607Z,100760.59
2023-05-05T16:23:57.048Z,100753.09
2023-05-05T16:26:23.993Z,100792.66
2023-05-05T16:28:54.296Z,100788.34
2023-05-05T16:31:21.482Z,100792.50
2023-05-05T16:33:48.871Z,100793.31
2023-05-05T16:36:17.151Z,100798.09
2023-05-05T16:38:44.464Z,100796.47
2023-05-05T16:41:11.760Z,100775.88
2023-05-05T16:43:39.201Z,100799.63
2023-05-05T16:46:06.598Z,100782.59
2023-05-05T16:48:34.166Z,100795.06
2023-05-05T16:51:01.155Z,100788.44
2023-05-05T16:53:32.877Z,100811.97
2023-05-05T16:56:00.454Z,100810.53
2023-05-05T16:58:30.521Z,100807.03
2023-05-05T17:01:02.000Z,100814.53
2023-05-05T17:03:31.488Z,100816.25
2023-05-05T17:05:58.743Z,100813.53
2023-05-05T17:08:30.994Z,100818.13
2023-05-05T17:11:00.517Z,100814.56
2023-05-05T17:13:27.878Z,100777.94
2023-05-05T17:15:56.671Z,100821.47
2023-05-05T17:18:25.942Z,100821.47
2023-05-05T17:20:55.182Z,100818.34
2023-05-05T17:23:22.413Z,100817.09
2023-05-05T17:25:49.455Z,100809.38
2023-05-05T17:28:18.078Z,100815.78
2023-05-05T17:30:45.174Z,100814.75
2023-05-05T17:33:19.167Z,100817.22
2023-05-05T17:35:49.791Z,100814.31
2023-05-05T17:38:17.715Z,100816.34
2023-05-05T17:40:45.156Z,100816.09
2023-05-05T17:43:12.634Z,100809.00
2023-05-05T17:45:42.327Z,100817.50
2023-05-05T17:48:09.702Z,100777.63
2023-05-05T17:50:36.807Z,100817.03
2023-05-05T17:53:04.943Z,100784.88
2023-05-05T17:55:32.193Z,100816.56
2023-05-05T17:57:59.492Z,100820.25
2023-05-05T18:00:26.633Z,100807.09
2023-05-05T18:02:55.399Z,100829.50
2023-05-05T18:05:22.928Z,100822.19
2023-05-05T18:07:50.374Z,100823.00
2023-05-05T18:10:17.430Z,100826.91
2023-05-05T18:12:45.149Z,100827.06
2023-05-05T18:15:12.512Z,100820.38
2023-05-05T18:17:40.442Z,100831.31
2023-05-05T18:20:10.423Z,100830.59
2023-05-05T18:22:38.033Z,100831.13
2023-05-05T18:25:07.988Z,100835.84
2023-05-05T18:27:36.151Z,100835.13
2023-05-05T18:30:04.841Z,100838.03
2023-05-05T18:32:32.432Z,100830.69
2023-05-05T18:34:59.452Z,100840.41
2023-05-05T18:37:28.236Z,100847.03
2023-05-05T18:39:55.200Z,100840.16
2023-05-05T18:42:23.600Z,100844.91
2023-05-05T18:44:50.446Z,100842.31
2023-05-05T18:47:17.594Z,100839.63
2023-05-05T18:49:45.470Z,100836.75
2023-05-05T18:52:13.501Z,100849.25
2023-05-05T18:54:41.805Z,100836.88
2023-05-05T18:57:09.469Z,100860.94
2023-05-05T18:59:36.596Z,100857.97
2023-05-05T19:02:04.025Z,100859.41
2023-05-05T19:04:32.701Z,100813.75
2023-05-05T19:07:00.293Z,100866.09
2023-05-05T19:09:27.722Z,100865.00
2023-05-05T19:11:56.405Z,100870.31
2023-05-05T19:14:23.514Z,100853.41
2023-05-05T19:16:51.156Z,100862.31
2023-05-05T19:19:18.206Z,100864.75
2023-05-05T19:21:45.525Z,100866.16
2023-05-05T19:24:12.676Z,100833.06
2023-05-05T19:26:40.218Z,100865.41
2023-05-05T19:29:08.948Z,100864.28
2023-05-05T19:31:36.833Z,100866.06
2023-05-05T19:34:05.280Z,100869.28
2023-05-05T19:36:32.696Z,100870.66
2023-05-05T19:39:01.682Z,100861.09
2023-05-05T19:41:28.990Z,100821.22
2023-05-05T19:43:56.267Z,100847.34
2023-05-05T19:46:27.662Z,100853.94
2023-05-05T19:48:54.835Z,100870.81
2023-05-05T19:51:22.252Z,100869.69
2023-05-05T19:53:50.222Z,100864.88
2023-05-05T19:56:17.899Z,100858.09
2023-05-05T19:58:56.193Z,100869.50
2023-05-05T20:01:25.371Z,100863.81
2023-05-05T20:03:54.528Z,100850.34
2023-05-05T20:06:22.624Z,100767.16
2023-05-05T20:08:49.554Z,100844.66
2023-05-05T20:11:17.495Z,100859.25
2023-05-05T20:13:47.506Z,100856.06
2023-05-05T20:16:15.154Z,100838.03
2023-05-05T20:18:43.716Z,100853.47
2023-05-05T20:21:11.134Z,100851.50
2023-05-05T20:23:38.277Z,100857.56
2023-05-05T20:26:05.730Z,100849.88
2023-05-05T20:28:32.801Z,100858.66
2023-05-05T20:31:03.381Z,100854.47
2023-05-05T20:33:30.318Z,100855.00
2023-05-05T20:36:01.117Z,100816.25
2023-05-05T20:38:28.037Z,100848.00
2023-05-05T20:40:55.851Z,100854.75
2023-05-05T20:43:24.234Z,100844.41
2023-05-05T20:45:51.703Z,100851.63
2023-05-05T20:48:19.123Z,100800.97
2023-05-05T20:50:46.039Z,100809.50
2023-05-05T20:53:20.908Z,100843.31
2023-05-05T20:55:48.040Z,100844.00
2023-05-05T20:58:15.402Z,100831.66
2023-05-05T21:00:42.438Z,100847.59
2023-05-05T21:03:09.904Z,100842.72
2023-05-05T21:05:37.305Z,100841.41
2023-05-05T21:08:05.728Z,100843.94
2023-05-05T21:10:34.450Z,100849.53
2023-05-05T21:13:02.558Z,100849.00
2023-05-05T21:15:29.885Z,100838.47
2023-05-05T21:17:57.423Z,100853.19
2023-05-05T21:20:24.731Z,100848.19
2023-05-05T21:22:51.982Z,100819.41
2023-05-05T21:25:20.955Z,100824.28
2023-05-05T21:27:49.926Z,100852.25
2023-05-05T21:30:17.625Z,100845.38
2023-05-05T21:32:45.676Z,100842.22
2023-05-05T21:35:12.790Z,100811.59
2023-05-05T21:37:40.700Z,100843.75
2023-05-05T21:40:13.231Z,100850.31
2023-05-05T21:42:41.249Z,100843.94
2023-05-05T21:45:10.943Z,100849.66
2023-05-05T21:47:38.539Z,100842.13
2023-05-05T21:50:06.976Z,100848.50
2023-05-05T21:52:34.276Z,100852.50
2023-05-05T21:55:01.562Z,100832.41
2023-05-05T21:57:28.862Z,100854.06
2023-05-05T21:59:55.926Z,100824.91
2023-05-05T22:02:24.645Z,100855.38
2023-05-05T22:04:51.939Z,100857.56
2023-05-05T22:07:19.167Z,100848.38
2023-05-05T22:09:46.193Z,100852.72
2023-05-05T22:12:13.727Z,100843.00
2023-05-05T22:14:40.895Z,100845.84
2023-05-05T22:17:08.207Z,100838.97
2023-05-05T22:19:36.514Z,100848.88
2023-05-05T22:22:03.966Z,100812.84
2023-05-05T22:24:31.084Z,100840.34
2023-05-05T22:26:58.601Z,100838.34
2023-05-05T22:29:25.670Z,100845.16
2023-05-05T22:31:53.117Z,100835.78
2023-05-05T22:34:21.742Z,100838.63
2023-05-05T22:36:50.331Z,100842.66
2023-05-05T22:39:18.529Z,100829.41
2023-05-05T22:41:46.238Z,100839.13
2023-05-05T22:44:18.521Z,100824.38
2023-05-05T22:46:45.888Z,100824.06
2023-05-05T22:49:14.017Z,100802.78
2023-05-05T22:51:41.377Z,100831.44
2023-05-05T22:54:09.811Z,100802.44
2023-05-05T22:56:39.767Z,100827.75
2023-05-05T22:59:06.838Z,100823.38
2023-05-05T23:01:34.728Z,100833.44
2023-05-05T23:04:01.718Z,100827.06
2023-05-05T23:06:29.662Z,100819.88
2023-05-05T23:08:56.599Z,100816.19
2023-05-05T23:11:26.126Z,100816.34
2023-05-05T23:13:53.532Z,100816.19
2023-05-05T23:16:20.846Z,100815.34
2023-05-05T23:18:47.851Z,100814.00
2023-05-05T23:21:14.950Z,100815.50
2023-05-05T23:23:42.103Z,100767.19
2023-05-05T23:26:13.574Z,100802.25
2023-05-05T23:28:42.014Z,100805.19
2023-05-05T23:31:09.253Z,100799.97
2023-05-05T23:33:36.345Z,100808.84
2023-05-05T23:36:04.505Z,100807.19
2023-05-05T23:38:31.516Z,100815.72
2023-05-05T23:40:58.912Z,100792.06
2023-05-05T23:43:26.016Z,100808.13
2023-05-05T23:45:54.578Z,100804.28
2023-05-05T23:48:21.880Z,100802.91
2023-05-05T23:50:49.482Z,100804.06
2023-05-05T23:53:16.608Z,100811.91
2023-05-05T23:55:43.906Z,100796.97
2023-05-05T23:58:10.960Z,100802.16
